Time;durP1;ratioP1;P1;durP2;ratioP2;P2;SDS_P1;SDS_P2;PMS_P1;PMS_P2;Temp;Humidity;BMP_temperature;BMP_pressure;BME280_temperature;BME280_humidity;BME280_pressure;Samples;Min_cycle;Max_cycle;Signal;HPM_P1;HPM_P2
2023/06/17 00:01:51;;;;;;;4.63;4.22;;;;;;;17.26;71.22;98532.84;4170203;28;20246;-49
2023/06/17 00:03:53;;;;;;;5.22;4.53;;;;;;;17.23;71.16;98530.66;4168767;28;20204;-49
2023/06/17 00:05:55;;;;;;;5.03;4.63;;;;;;;17.18;71.49;98530.72;4143300;28;20244;-52
2023/06/17 00:07:57;;;;;;;5.00;4.60;;;;;;;17.17;71.90;98532.66;4141773;28;20213;-50
2023/06/17 00:09:58;;;;;;;25.67;5.03;;;;;;;17.12;72.62;98532.69;4142481;28;20251;-50
2023/06/17 00:12:01;;;;;;;5.55;3.92;;;;;;;17.11;73.05;98530.25;4136307;28;20244;-49
2023/06/17 00:14:03;;;;;;;6.22;4.30;;;;;;;17.08;73.01;98528.03;4141603;28;20390;-49
2023/06/17 00:16:06;;;;;;;6.32;4.57;;;;;;;17.05;73.19;98528.66;4137248;28;20300;-50
2023/06/17 00:18:07;;;;;;;4.63;4.18;;;;;;;17.09;73.35;98535.22;4143612;28;20228;-50
2023/06/17 00:20:11;;;;;;;4.47;4.18;;;;;;;17.10;73.18;98529.41;4143375;28;20224;-52
2023/06/17 00:22:13;;;;;;;5.68;5.28;;;;;;;17.08;73.19;98528.88;4141343;28;20209;-49
2023/06/17 00:24:16;;;;;;;4.35;3.97;;;;;;;17.05;74.08;98534.19;4138415;28;20315;-50
2023/06/17 00:26:18;;;;;;;5.32;4.93;;;;;;;16.93;74.62;98525.44;4169897;28;20220;-51
2023/06/17 00:28:19;;;;;;;4.85;4.45;;;;;;;16.84;75.05;98520.81;4142243;28;20198;-49
2023/06/17 00:30:21;;;;;;;5.10;4.70;;;;;;;16.79;75.28;98529.16;4137878;28;20297;-50
2023/06/17 00:32:23;;;;;;;5.75;5.22;;;;;;;16.79;75.55;98523.63;4138657;28;20733;-49
2023/06/17 00:34:25;;;;;;;5.00;4.60;;;;;;;16.71;75.71;98516.81;4169170;28;20242;-50
2023/06/17 00:36:27;;;;;;;4.80;4.50;;;;;;;16.63;76.07;98525.69;4168518;28;20586;-50
2023/06/17 00:38:28;;;;;;;4.97;4.57;;;;;;;16.54;76.53;98521.91;4144239;28;20228;-51
2023/06/17 00:40:30;;;;;;;4.57;4.20;;;;;;;16.55;76.26;98523.53;4143649;28;20710;-50
2023/06/17 00:42:32;;;;;;;5.60;4.80;;;;;;;16.56;76.34;98518.84;4150490;28;20563;-50
2023/06/17 00:44:33;;;;;;;5.47;5.07;;;;;;;16.54;76.02;98521.91;4167703;28;20224;-51
2023/06/17 00:46:40;;;;;;;5.50;4.50;;;;;;;16.47;76.36;98520.56;4142205;28;20233;-50
2023/06/17 00:48:42;;;;;;;5.10;4.70;;;;;;;16.45;76.46;98518.09;4151421;28;20255;-50
2023/06/17 00:50:46;;;;;;;4.88;4.22;;;;;;;16.39;76.59;98515.66;4128842;28;20564;-50
2023/06/17 00:52:52;;;;;;;4.72;4.38;;;;;;;16.36;76.84;98511.50;4138763;28;20300;-51
2023/06/17 00:54:55;;;;;;;5.05;4.70;;;;;;;16.35;76.86;98518.13;4168036;28;20328;-50
2023/06/17 00:56:58;;;;;;;5.43;5.03;;;;;;;16.34;76.77;98515.66;4143708;28;20220;-50
2023/06/17 00:59:01;;;;;;;5.22;4.82;;;;;;;16.30;77.31;98517.34;4134163;28;20276;-50
2023/06/17 01:01:03;;;;;;;5.13;4.28;;;;;;;16.33;77.50;98519.53;4151750;28;20240;-49
2023/06/17 01:03:07;;;;;;;7.38;5.25;;;;;;;16.27;77.45;98521.50;4168743;28;20209;-50
2023/06/17 01:05:11;;;;;;;5.43;4.93;;;;;;;16.26;77.59;98528.16;4136655;28;20785;-50
2023/06/17 01:07:26;;;;;;;4.65;4.35;;;;;;;16.21;77.41;98528.19;4144472;28;20619;-50
2023/06/17 01:09:30;;;;;;;4.97;4.57;;;;;;;16.23;77.36;98520.41;4151496;28;20673;-49
2023/06/17 01:11:32;;;;;;;5.43;4.97;;;;;;;16.20;77.40;98526.53;4136936;28;20279;-49
2023/06/17 01:13:35;;;;;;;6.55;5.25;;;;;;;16.15;77.83;98523.00;4137620;28;20247;-49
2023/06/17 01:15:37;;;;;;;5.07;4.68;;;;;;;16.07;77.69;98521.63;4142372;28;20308;-54
2023/06/17 01:17:43;;;;;;;5.57;5.07;;;;;;;16.07;77.82;98516.13;4135702;28;20210;-50
2023/06/17 01:19:48;;;;;;;5.30;4.90;;;;;;;16.01;78.09;98517.25;4167202;28;20244;-50
2023/06/17 01:21:54;;;;;;;5.22;4.82;;;;;;;15.99;78.42;98519.47;4136230;28;20206;-49
2023/06/17 01:23:58;;;;;;;7.75;5.88;;;;;;;15.96;78.54;98514.50;4133628;28;20687;-50
2023/06/17 01:26:01;;;;;;;6.30;5.90;;;;;;;15.91;78.38;98516.50;4152436;28;20652;-49
2023/06/17 01:28:19;;;;;;;6.43;5.25;;;;;;;15.85;78.61;98514.84;4164939;28;20766;-51
2023/06/17 01:30:20;;;;;;;5.90;5.38;;;;;;;15.85;79.06;98518.47;4138149;28;20242;-50
2023/06/17 01:32:23;;;;;;;6.80;5.25;;;;;;;15.79;78.59;98516.84;4127575;28;20233;-51
2023/06/17 01:34:32;;;;;;;5.80;5.18;;;;;;;15.77;78.90;98516.28;4137813;28;20611;-49
2023/06/17 01:36:35;;;;;;;5.47;5.00;;;;;;;15.76;79.19;98530.38;4142373;28;20256;-50
2023/06/17 01:38:41;;;;;;;4.88;4.47;;;;;;;15.71;79.18;98522.91;4153164;28;20694;-49
2023/06/17 01:40:43;;;;;;;5.38;4.82;;;;;;;15.67;79.09;98521.84;4151210;28;20255;-49
2023/06/17 01:42:47;;;;;;;4.30;4.00;;;;;;;15.60;79.24;98521.31;4142954;28;20221;-52
2023/06/17 01:44:50;;;;;;;4.88;4.45;;;;;;;15.59;78.99;98518.84;4149282;28;20291;-51
2023/06/17 01:46:54;;;;;;;5.53;5.13;;;;;;;15.58;78.93;98523.56;4134629;28;20210;-49
2023/06/17 01:48:56;;;;;;;6.00;5.00;;;;;;;15.50;78.88;98515.84;4133937;28;20264;-51
2023/06/17 01:50:58;;;;;;;5.88;5.38;;;;;;;15.51;78.98;98528.50;4166300;28;20637;-51
2023/06/17 01:52:59;;;;;;;5.22;4.82;;;;;;;15.49;78.81;98524.41;4139120;28;20240;-49
2023/06/17 01:55:02;;;;;;;4.55;4.25;;;;;;;15.45;79.06;98521.38;4144145;28;20797;-50
2023/06/17 01:57:07;;;;;;;5.65;5.07;;;;;;;15.47;78.75;98516.41;4141563;28;20204;-51
2023/06/17 01:59:09;;;;;;;5.72;5.28;;;;;;;15.41;78.80;98517.53;4170039;28;20911;-49
2023/06/17 02:01:11;;;;;;;6.30;5.75;;;;;;;15.32;78.94;98518.38;4146260;28;20217;-49
2023/06/17 02:03:13;;;;;;;6.00;5.50;;;;;;;15.36;78.98;98514.78;4139974;28;20606;-51
2023/06/17 02:05:14;;;;;;;6.35;5.85;;;;;;;15.33;79.11;98512.59;4139996;28;20229;-50
2023/06/17 02:07:17;;;;;;;5.32;4.55;;;;;;;15.32;79.33;98513.72;4129694;28;20214;-51
2023/06/17 02:09:19;;;;;;;5.15;4.75;;;;;;;15.30;79.33;98518.63;4145626;28;20205;-52
2023/06/17 02:11:21;;;;;;;5.35;4.95;;;;;;;15.32;79.19;98523.91;4155227;28;20632;-52
2023/06/17 02:13:23;;;;;;;5.43;4.93;;;;;;;15.29;79.12;98514.22;4146934;28;20205;-51
2023/06/17 02:15:24;;;;;;;6.20;5.70;;;;;;;15.26;79.48;98509.28;4146135;28;20252;-49
2023/06/17 02:17:27;;;;;;;4.82;4.53;;;;;;;15.24;79.28;98516.97;4137461;28;20217;-51
2023/06/17 02:19:31;;;;;;;5.53;5.13;;;;;;;15.21;79.37;98513.97;4140435;28;20769;-50
2023/06/17 02:21:33;;;;;;;6.50;6.00;;;;;;;15.16;79.45;98509.28;4151592;28;20279;-57
2023/06/17 02:23:35;;;;;;;6.13;5.63;;;;;;;15.13;79.81;98515.38;4138966;28;20209;-51
2023/06/17 02:25:39;;;;;;;5.65;5.15;;;;;;;15.08;80.35;98509.88;4144975;28;20225;-51
2023/06/17 02:27:41;;;;;;;5.45;5.05;;;;;;;15.04;80.41;98508.75;4143642;28;20245;-52
2023/06/17 02:29:44;;;;;;;5.85;5.45;;;;;;;15.07;80.63;98508.22;4145479;28;20650;-50
2023/06/17 02:31:45;;;;;;;5.05;4.65;;;;;;;15.07;80.65;98504.63;4170208;28;20305;-49
2023/06/17 02:33:48;;;;;;;5.50;5.00;;;;;;;15.07;80.60;98505.47;4153081;28;20831;-50
2023/06/17 02:35:49;;;;;;;6.00;5.60;;;;;;;15.09;80.67;98506.00;4144427;28;20260;-50
2023/06/17 02:37:52;;;;;;;5.22;4.70;;;;;;;15.06;80.75;98501.06;4138038;28;21150;-50
2023/06/17 02:39:54;;;;;;;5.13;4.82;;;;;;;15.07;80.71;98494.44;4171448;28;20227;-52
2023/06/17 02:41:56;;;;;;;6.28;5.68;;;;;;;15.06;80.95;98497.47;4139251;28;21110;-50
2023/06/17 02:43:58;;;;;;;6.13;5.63;;;;;;;15.02;81.01;98502.72;4172016;28;20212;-49
2023/06/17 02:45:59;;;;;;;5.30;5.00;;;;;;;15.01;81.17;98503.81;4143533;28;20209;-49
2023/06/17 02:48:02;;;;;;;6.40;5.90;;;;;;;14.94;81.06;98500.53;4141458;28;20213;-49
2023/06/17 02:50:05;;;;;;;6.07;5.50;;;;;;;14.91;81.19;98501.06;4172572;28;20206;-50
2023/06/17 02:52:07;;;;;;;5.70;5.28;;;;;;;14.88;81.28;98496.13;4171653;28;20219;-52
2023/06/17 02:54:10;;;;;;;6.05;5.57;;;;;;;14.86;81.47;98497.50;4141694;28;20233;-52
2023/06/17 02:56:12;;;;;;;5.90;5.50;;;;;;;14.83;81.23;98498.88;4171663;28;20570;-50
2023/06/17 02:58:18;;;;;;;5.20;4.80;;;;;;;14.82;81.27;98502.75;4137666;28;20295;-49
2023/06/17 03:00:21;;;;;;;6.55;6.05;;;;;;;14.81;81.55;98505.78;4153136;28;20225;-50
2023/06/17 03:02:23;;;;;;;6.03;5.53;;;;;;;14.76;82.03;98495.59;4141056;28;20252;-51
2023/06/17 03:04:25;;;;;;;5.93;5.43;;;;;;;14.74;81.64;98492.28;4169172;28;20251;-51
2023/06/17 03:06:33;;;;;;;5.50;5.07;;;;;;;14.73;81.76;98498.91;4140524;28;20197;-52
2023/06/17 03:08:38;;;;;;;5.03;4.63;;;;;;;14.70;81.69;98499.44;4140982;28;20213;-50
2023/06/17 03:10:39;;;;;;;5.68;5.28;;;;;;;14.67;81.60;98496.44;4145270;28;20198;-50
2023/06/17 03:12:43;;;;;;;6.95;5.88;;;;;;;14.64;81.79;98508.81;4138099;28;20213;-50
2023/06/17 03:14:47;;;;;;;6.38;5.88;;;;;;;14.59;81.74;98495.06;4137651;28;20229;-50
2023/06/17 03:16:50;;;;;;;6.00;5.50;;;;;;;14.59;82.05;98508.84;4137063;28;20259;-52
2023/06/17 03:18:52;;;;;;;5.55;5.15;;;;;;;14.57;82.01;98500.00;4129515;28;20217;-51
2023/06/17 03:20:54;;;;;;;6.38;5.82;;;;;;;14.56;82.21;98508.56;4152182;28;20790;-50
2023/06/17 03:22:56;;;;;;;5.60;5.18;;;;;;;14.50;82.33;98504.97;4138242;28;20786;-51
2023/06/17 03:24:57;;;;;;;6.28;5.53;;;;;;;14.48;82.51;98498.91;4130095;28;20230;-52
2023/06/17 03:26:59;;;;;;;5.35;4.85;;;;;;;14.48;82.96;98501.66;4169799;28;20678;-50
2023/06/17 03:29:02;;;;;;;5.90;5.38;;;;;;;14.43;83.00;98503.59;4157101;28;20265;-51
2023/06/17 03:31:04;;;;;;;6.60;6.00;;;;;;;14.38;83.45;98506.34;4144673;28;20217;-50
2023/06/17 03:33:06;;;;;;;6.47;5.97;;;;;;;14.32;83.41;98496.44;4144386;28;20699;-50
2023/06/17 03:35:08;;;;;;;6.20;5.80;;;;;;;14.25;83.49;98501.38;4136910;28;20715;-52
2023/06/17 03:37:10;;;;;;;7.03;6.43;;;;;;;14.19;83.94;98497.81;4140595;28;20769;-50
2023/06/17 03:39:12;;;;;;;6.53;6.00;;;;;;;14.20;84.14;98502.22;4145116;28;20229;-50
2023/06/17 03:41:14;;;;;;;6.13;5.72;;;;;;;14.24;84.26;98499.75;4140319;28;20220;-50
2023/06/17 03:43:16;;;;;;;6.53;5.93;;;;;;;14.20;84.05;98504.97;4137466;28;20287;-52
2023/06/17 03:45:17;;;;;;;6.38;5.90;;;;;;;14.26;84.08;98503.88;4170257;28;20281;-51
2023/06/17 03:47:19;;;;;;;6.35;5.95;;;;;;;14.28;83.88;98501.66;4170242;28;20297;-49
2023/06/17 03:49:20;;;;;;;5.88;4.97;;;;;;;14.29;84.06;98499.75;4145931;28;20205;-50
2023/06/17 03:51:22;;;;;;;6.55;6.05;;;;;;;14.20;84.48;98504.97;4126852;28;20210;-50
2023/06/17 03:53:24;;;;;;;5.65;5.22;;;;;;;14.22;84.07;98501.94;4143568;28;20213;-50
2023/06/17 03:55:26;;;;;;;6.80;6.30;;;;;;;14.17;84.29;98505.47;4152350;28;20232;-50
2023/06/17 03:57:28;;;;;;;6.50;6.05;;;;;;;14.23;84.38;98501.66;4144518;28;20225;-51
2023/06/17 03:59:29;;;;;;;10.77;5.72;;;;;;;14.23;84.28;98501.66;4150686;28;20229;-50
2023/06/17 04:01:31;;;;;;;7.40;5.65;;;;;;;14.18;84.08;98506.31;4143339;28;20702;-50
2023/06/17 04:03:34;;;;;;;5.90;5.40;;;;;;;14.17;84.42;98488.94;4155142;28;20205;-50
2023/06/17 04:05:36;;;;;;;6.82;6.32;;;;;;;14.05;84.59;98498.56;4140511;28;20598;-50
2023/06/17 04:07:38;;;;;;;6.35;5.85;;;;;;;14.03;84.70;98490.59;4137781;28;20264;-50
2023/06/17 04:09:40;;;;;;;6.63;6.07;;;;;;;14.01;85.21;98495.53;4135495;28;20206;-51
2023/06/17 04:12:02;;;;;;;6.85;6.35;;;;;;;13.98;85.22;98490.56;4168640;28;20228;-50
2023/06/17 04:14:04;;;;;;;6.07;5.70;;;;;;;13.97;85.56;98494.41;4145100;28;20320;-51
2023/06/17 04:16:07;;;;;;;6.40;5.90;;;;;;;13.94;85.63;98500.47;4143797;28;20634;-50
2023/06/17 04:18:08;;;;;;;6.53;5.93;;;;;;;13.92;85.41;98499.94;4143598;28;20223;-50
2023/06/17 04:20:12;;;;;;;6.88;6.05;;;;;;;14.00;85.62;98504.91;4138514;28;20224;-50
2023/06/17 04:22:13;;;;;;;5.97;5.57;;;;;;;14.02;85.70;98499.94;4146397;28;20213;-50
2023/06/17 04:24:15;;;;;;;6.93;6.43;;;;;;;14.01;85.50;98503.78;4143866;28;20292;-51
2023/06/17 04:26:18;;;;;;;6.72;6.28;;;;;;;14.03;85.54;98501.59;4134509;28;20204;-53
2023/06/17 04:28:22;;;;;;;6.40;6.00;;;;;;;14.05;85.80;98504.06;4168716;28;20653;-50
2023/06/17 04:30:25;;;;;;;7.07;6.50;;;;;;;14.04;85.87;98500.47;4167954;28;20794;-50
2023/06/17 04:32:27;;;;;;;7.13;6.57;;;;;;;14.07;85.97;98502.72;4119705;28;20220;-50
2023/06/17 04:34:29;;;;;;;6.15;5.65;;;;;;;14.09;85.62;98506.00;4171420;28;20232;-49
2023/06/17 04:36:32;;;;;;;7.18;6.57;;;;;;;14.11;85.70;98503.78;4138183;28;20209;-50
2023/06/17 04:38:36;;;;;;;6.70;6.20;;;;;;;14.14;85.54;98508.78;4169435;28;20209;-50
2023/06/17 04:40:38;;;;;;;7.13;6.43;;;;;;;14.23;85.63;98509.09;4171196;28;20224;-51
2023/06/17 04:42:44;;;;;;;6.70;6.20;;;;;;;14.25;86.03;98501.38;4144363;28;20209;-50
2023/06/17 04:44:48;;;;;;;6.82;6.40;;;;;;;14.28;86.14;98507.16;4138086;28;20222;-51
2023/06/17 04:46:50;;;;;;;6.28;5.50;;;;;;;14.31;86.30;98501.09;4137870;28;20208;-52
2023/06/17 04:48:53;;;;;;;6.70;6.20;;;;;;;14.33;86.02;98504.44;4168585;28;20215;-51
2023/06/17 04:50:56;;;;;;;11.35;5.38;;;;;;;14.38;85.73;98496.16;4142868;28;20252;-51
2023/06/17 04:53:03;;;;;;;5.63;5.22;;;;;;;14.42;86.07;98508.28;4154588;28;20240;-54
2023/06/17 04:55:06;;;;;;;5.82;5.43;;;;;;;14.44;85.84;98495.06;4140371;28;20231;-50
2023/06/17 04:57:08;;;;;;;7.32;5.13;;;;;;;14.47;85.55;98500.03;4137388;28;20688;-51
2023/06/17 04:59:10;;;;;;;5.57;5.18;;;;;;;14.52;85.52;98491.78;4137307;28;20249;-50
2023/06/17 05:01:13;;;;;;;6.50;6.07;;;;;;;14.60;85.49;98504.97;4151386;28;20258;-50
2023/06/17 05:03:15;;;;;;;6.40;5.93;;;;;;;14.64;85.21;98506.06;4144038;28;20296;-50
2023/06/17 05:05:16;;;;;;;6.43;5.93;;;;;;;14.67;85.11;98500.00;4136333;28;20234;-50
2023/06/17 05:07:18;;;;;;;6.68;6.18;;;;;;;14.70;85.07;98510.47;4168886;28;21137;-50
2023/06/17 05:09:20;;;;;;;6.25;5.75;;;;;;;14.74;84.87;98505.22;4168043;28;20212;-51
2023/06/17 05:11:22;;;;;;;6.57;6.05;;;;;;;14.78;84.86;98506.34;4149413;28;20259;-50
2023/06/17 05:13:23;;;;;;;6.38;5.90;;;;;;;14.82;84.74;98502.75;4138093;28;20742;-52
2023/06/17 05:15:25;;;;;;;6.65;6.13;;;;;;;14.88;84.55;98511.81;4142410;28;20224;-50
2023/06/17 05:17:27;;;;;;;6.22;5.72;;;;;;;14.95;84.07;98507.69;4167948;28;20208;-50
2023/06/17 05:19:28;;;;;;;6.40;5.90;;;;;;;15.03;84.01;98504.38;4135324;28;20635;-50
2023/06/17 05:21:30;;;;;;;8.02;6.00;;;;;;;15.11;83.80;98509.28;4145248;28;20262;-51
2023/06/17 05:23:32;;;;;;;12.93;5.60;;;;;;;15.22;83.48;98512.88;4142316;28;20256;-50
2023/06/17 05:25:34;;;;;;;6.25;5.75;;;;;;;15.37;83.13;98510.91;4141495;28;20221;-50
2023/06/17 05:27:38;;;;;;;7.65;6.80;;;;;;;15.47;82.67;98510.06;4140864;28;20209;-49
2023/06/17 05:29:40;;;;;;;7.75;7.18;;;;;;;15.44;83.65;98510.63;4172193;28;20232;-52
2023/06/17 05:31:42;;;;;;;6.43;5.65;;;;;;;15.58;82.66;98515.28;4145579;28;20205;-51
2023/06/17 05:33:43;;;;;;;7.15;6.65;;;;;;;15.75;82.01;98512.97;4171339;28;20216;-53
2023/06/17 05:35:45;;;;;;;7.20;6.43;;;;;;;15.93;82.10;98520.63;4145710;28;20235;-50
2023/06/17 05:37:47;;;;;;;7.07;6.47;;;;;;;16.06;82.44;98525.50;4144759;28;20209;-50
2023/06/17 05:39:49;;;;;;;7.38;6.43;;;;;;;16.25;82.95;98526.50;4154318;28;20228;-49
2023/06/17 05:41:50;;;;;;;8.32;7.72;;;;;;;16.36;82.53;98525.31;4145465;28;20391;-50
2023/06/17 05:43:52;;;;;;;7.40;6.68;;;;;;;16.60;82.32;98520.75;4147253;28;20742;-49
2023/06/17 05:45:54;;;;;;;6.07;5.57;;;;;;;16.82;81.33;98525.81;4147856;28;20831;-50
2023/06/17 05:47:56;;;;;;;6.70;6.20;;;;;;;16.98;80.27;98523.44;4140437;28;20244;-54
2023/06/17 05:49:58;;;;;;;6.85;6.32;;;;;;;17.19;79.25;98518.53;4169464;28;20208;-50
2023/06/17 05:52:00;;;;;;;6.32;5.82;;;;;;;17.35;78.38;98529.16;4138475;28;20248;-49
2023/06/17 05:54:02;;;;;;;9.60;5.97;;;;;;;17.58;77.84;98519.25;4138227;28;20217;-53
2023/06/17 05:56:08;;;;;;;6.80;6.28;;;;;;;17.56;77.93;98521.47;4147602;28;20213;-52
2023/06/17 05:58:10;;;;;;;7.40;6.65;;;;;;;17.74;77.44;98529.00;4139744;28;20683;-51
2023/06/17 06:00:12;;;;;;;5.63;5.07;;;;;;;17.96;75.87;98523.72;4171074;28;20252;-50
2023/06/17 06:02:14;;;;;;;6.38;5.93;;;;;;;18.10;73.79;98525.47;4161858;28;20748;-51
2023/06/17 06:04:16;;;;;;;6.15;5.70;;;;;;;18.23;73.62;98527.50;4151801;28;20836;-50
2023/06/17 06:06:18;;;;;;;5.97;5.47;;;;;;;18.34;73.19;98525.44;4143962;28;20208;-49
2023/06/17 06:08:19;;;;;;;5.88;5.47;;;;;;;18.49;73.87;98534.34;4146223;28;20217;-54
2023/06/17 06:10:21;;;;;;;6.70;6.20;;;;;;;18.66;72.20;98517.19;4171929;28;20208;-50
2023/06/17 06:12:23;;;;;;;8.10;6.00;;;;;;;18.78;71.63;98532.19;4155653;28;20217;-50
2023/06/17 06:14:25;;;;;;;12.82;6.43;;;;;;;18.90;70.83;98527.00;4142337;28;20236;-53
2023/06/17 06:16:27;;;;;;;6.85;5.97;;;;;;;18.98;69.98;98531.06;4171435;28;20209;-52
2023/06/17 06:18:29;;;;;;;7.68;5.18;;;;;;;19.12;69.76;98531.91;4140374;28;20209;-50
2023/06/17 06:20:31;;;;;;;5.63;5.00;;;;;;;19.22;69.18;98526.19;4170645;28;20238;-51
2023/06/17 06:22:33;;;;;;;5.60;4.68;;;;;;;19.41;68.75;98529.72;4144818;28;20212;-51
2023/06/17 06:24:34;;;;;;;5.20;4.70;;;;;;;19.53;67.66;98532.81;4143961;28;20240;-50
2023/06/17 06:26:36;;;;;;;6.68;5.40;;;;;;;19.57;68.03;98534.69;4145996;28;20237;-50
2023/06/17 06:28:38;;;;;;;8.93;4.75;;;;;;;19.66;67.11;98537.56;4168636;28;20204;-50
2023/06/17 06:30:39;;;;;;;4.97;4.57;;;;;;;19.88;66.12;98534.88;4142335;28;20201;-50
2023/06/17 06:32:41;;;;;;;5.13;4.72;;;;;;;19.84;65.87;98539.44;4137058;28;20205;-49
2023/06/17 06:34:45;;;;;;;5.65;5.25;;;;;;;19.86;65.22;98539.94;4152639;28;20265;-49
2023/06/17 06:36:47;;;;;;;4.57;4.18;;;;;;;20.03;64.08;98540.09;4137987;28;20887;-51
2023/06/17 06:38:49;;;;;;;4.85;4.45;;;;;;;20.20;64.40;98548.69;4139303;28;20276;-49
2023/06/17 06:40:50;;;;;;;9.38;5.07;;;;;;;20.43;63.19;98544.81;4139174;28;20292;-49
2023/06/17 06:42:52;;;;;;;4.07;3.78;;;;;;;20.69;62.47;98551.41;4137984;28;20217;-50
2023/06/17 06:44:54;;;;;;;4.40;4.00;;;;;;;20.88;61.45;98546.53;4138647;28;20730;-52
2023/06/17 06:46:58;;;;;;;12.27;4.22;;;;;;;20.99;59.70;98551.53;4145186;28;20704;-49
2023/06/17 06:49:00;;;;;;;4.00;3.70;;;;;;;20.92;58.08;98550.34;4146458;28;20204;-51
2023/06/17 06:51:02;;;;;;;5.95;4.32;;;;;;;21.14;57.72;98545.59;4145484;28;20255;-52
2023/06/17 06:53:04;;;;;;;4.97;4.47;;;;;;;21.27;56.62;98547.47;4150558;28;20205;-50
2023/06/17 06:55:06;;;;;;;4.90;4.28;;;;;;;21.31;54.58;98547.66;4137674;28;20264;-49
2023/06/17 06:57:08;;;;;;;5.05;4.57;;;;;;;21.52;54.22;98548.75;4137283;28;20208;-50
2023/06/17 06:59:09;;;;;;;4.50;4.15;;;;;;;21.81;54.51;98554.66;4170148;28;22854;-50
2023/06/17 07:01:13;;;;;;;4.43;4.07;;;;;;;21.91;54.63;98551.59;4144238;28;20693;-50
2023/06/17 07:03:15;;;;;;;4.82;4.40;;;;;;;21.84;53.24;98545.66;4169729;28;20599;-51
2023/06/17 07:05:16;;;;;;;4.40;4.00;;;;;;;22.21;52.85;98550.69;4137870;28;20255;-50
2023/06/17 07:07:18;;;;;;;5.78;4.43;;;;;;;22.31;52.32;98547.59;4140552;28;20209;-50
2023/06/17 07:09:21;;;;;;;8.20;4.03;;;;;;;22.52;52.36;98557.03;4168913;28;20207;-50
2023/06/17 07:11:22;;;;;;;6.43;3.97;;;;;;;22.62;52.93;98551.09;4170895;28;20207;-49
2023/06/17 07:13:24;;;;;;;5.65;4.10;;;;;;;22.68;52.36;98550.63;4140093;28;20305;-50
2023/06/17 07:15:26;;;;;;;3.78;3.45;;;;;;;22.78;51.99;98555.06;4168625;28;20231;-50
2023/06/17 07:17:28;;;;;;;4.93;4.38;;;;;;;22.97;52.00;98553.56;4142779;28;20259;-51
2023/06/17 07:19:30;;;;;;;5.63;5.13;;;;;;;22.39;51.09;98557.94;4144615;28;20295;-49
2023/06/17 07:21:31;;;;;;;5.15;4.35;;;;;;;22.27;52.17;98550.22;4151365;28;20229;-49
2023/06/17 07:23:33;;;;;;;4.28;3.92;;;;;;;22.77;51.43;98554.25;4142896;28;20294;-49
2023/06/17 07:25:36;;;;;;;4.20;3.83;;;;;;;23.08;51.64;98559.66;4170740;28;20228;-50
2023/06/17 07:27:38;;;;;;;4.68;4.28;;;;;;;23.14;50.86;98561.13;4169513;28;20219;-50
2023/06/17 07:29:40;;;;;;;4.43;4.13;;;;;;;22.85;50.85;98561.78;4143969;28;20298;-50
2023/06/17 07:31:42;;;;;;;7.47;4.57;;;;;;;23.30;51.10;98559.50;4141163;28;20259;-49
2023/06/17 07:33:44;;;;;;;3.78;3.47;;;;;;;23.50;50.97;98550.41;4138701;28;20208;-50
2023/06/17 07:35:46;;;;;;;4.28;3.88;;;;;;;23.60;50.57;98556.47;4148285;28;20617;-49
2023/06/17 07:37:50;;;;;;;5.00;3.78;;;;;;;23.01;48.94;98553.75;4141445;28;20299;-50
2023/06/17 07:39:52;;;;;;;5.20;4.32;;;;;;;22.86;48.99;98557.88;4170134;28;20313;-48
2023/06/17 07:41:54;;;;;;;4.90;4.50;;;;;;;23.02;48.98;98549.78;4142645;28;20275;-50
2023/06/17 07:43:55;;;;;;;4.78;4.38;;;;;;;22.95;48.65;98546.69;4127220;28;20213;-50
2023/06/17 07:45:57;;;;;;;3.65;3.25;;;;;;;23.10;48.52;98551.78;4171635;28;20284;-52
2023/06/17 07:47:59;;;;;;;5.28;4.38;;;;;;;23.65;48.55;98549.88;4136481;28;20268;-53
2023/06/17 07:50:01;;;;;;;6.60;3.95;;;;;;;23.96;47.59;98544.84;4144160;28;20213;-52
2023/06/17 07:52:04;;;;;;;5.00;4.13;;;;;;;24.08;47.97;98552.19;4136817;28;20292;-53
2023/06/17 07:54:06;;;;;;;3.90;3.33;;;;;;;24.43;47.17;98542.44;4140097;28;20213;-51
2023/06/17 07:56:10;;;;;;;3.95;3.65;;;;;;;24.63;47.55;98552.88;4152627;28;20231;-51
2023/06/17 07:58:12;;;;;;;6.15;4.07;;;;;;;25.00;45.72;98551.88;4149472;28;20213;-50
2023/06/17 08:00:14;;;;;;;6.55;2.83;;;;;;;25.29;45.97;98548.19;4137273;28;20221;-52
2023/06/17 08:02:16;;;;;;;6.85;2.95;;;;;;;25.32;44.76;98550.31;4141637;28;20235;-52
2023/06/17 08:04:18;;;;;;;4.05;3.05;;;;;;;25.41;44.46;98546.25;4138161;28;20236;-51
2023/06/17 08:06:20;;;;;;;3.35;2.75;;;;;;;25.54;43.76;98545.09;4136011;28;20201;-51
2023/06/17 08:08:22;;;;;;;3.65;3.35;;;;;;;25.70;42.58;98543.28;4168749;28;20204;-53
2023/06/17 08:10:24;;;;;;;3.45;3.13;;;;;;;26.13;43.53;98546.38;4144830;28;20208;-50
2023/06/17 08:12:25;;;;;;;6.78;3.70;;;;;;;26.36;43.06;98532.69;4140464;28;20216;-49
2023/06/17 08:14:27;;;;;;;3.13;2.90;;;;;;;26.45;43.20;98537.03;4137022;28;20228;-50
2023/06/17 08:16:31;;;;;;;3.80;2.97;;;;;;;26.50;42.42;98533.16;4139149;28;20611;-50
2023/06/17 08:18:33;;;;;;;2.92;2.72;;;;;;;26.65;42.24;98533.28;4137534;28;20291;-54
2023/06/17 08:20:36;;;;;;;3.33;3.13;;;;;;;26.55;41.54;98530.97;4156527;28;20211;-53
2023/06/17 08:22:38;;;;;;;10.15;4.00;;;;;;;26.47;41.44;98534.66;4132780;28;20213;-52
2023/06/17 08:24:40;;;;;;;4.10;3.80;;;;;;;26.78;40.23;98529.25;4133383;28;20467;-50
2023/06/17 08:26:43;;;;;;;7.40;3.25;;;;;;;26.49;39.91;98529.53;4137682;28;20232;-50
2023/06/17 08:28:45;;;;;;;3.38;3.08;;;;;;;26.29;38.71;98526.88;4168698;28;20200;-51
2023/06/17 08:30:49;;;;;;;3.58;3.28;;;;;;;25.98;38.81;98527.47;4168099;28;20644;-50
2023/06/17 08:32:50;;;;;;;4.25;3.28;;;;;;;25.77;38.50;98521.09;4132717;28;20209;-51
2023/06/17 08:34:52;;;;;;;3.92;3.60;;;;;;;25.83;38.01;98519.72;4147236;28;20270;-50
2023/06/17 08:36:54;;;;;;;5.07;3.38;;;;;;;25.91;38.60;98524.41;4153536;28;20196;-51
2023/06/17 08:38:56;;;;;;;4.43;3.15;;;;;;;26.19;37.68;98513.31;4137454;28;20284;-52
2023/06/17 08:40:59;;;;;;;5.13;3.30;;;;;;;26.02;37.42;98521.97;4151875;28;20235;-50
2023/06/17 08:43:03;;;;;;;4.25;3.95;;;;;;;25.73;37.78;98524.94;4136463;28;20210;-49
2023/06/17 08:45:06;;;;;;;5.68;3.88;;;;;;;26.17;37.58;98519.28;4164553;28;20238;-49
2023/06/17 08:47:12;;;;;;;5.75;3.42;;;;;;;26.00;36.38;98522.31;4130978;28;20220;-49
2023/06/17 08:49:15;;;;;;;3.78;3.47;;;;;;;26.25;35.83;98512.72;4149155;28;20204;-49
2023/06/17 08:51:18;;;;;;;3.45;3.15;;;;;;;26.33;35.75;98517.38;4118716;28;20210;-49
2023/06/17 08:53:20;;;;;;;5.43;3.53;;;;;;;26.41;36.79;98513.66;4137344;28;20761;-48
2023/06/17 08:55:22;;;;;;;4.15;3.75;;;;;;;26.32;36.30;98517.75;4133035;28;20256;-50
2023/06/17 08:57:24;;;;;;;4.05;3.65;;;;;;;26.90;37.31;98515.19;4168936;28;20821;-49
2023/06/17 08:59:25;;;;;;;4.13;3.83;;;;;;;27.09;35.51;98512.53;4134123;28;20219;-50
2023/06/17 09:01:27;;;;;;;3.72;3.45;;;;;;;27.16;36.84;98507.16;4160159;28;20234;-49
2023/06/17 09:03:29;;;;;;;3.75;3.45;;;;;;;27.06;35.88;98507.63;4134598;28;20231;-48
2023/06/17 09:05:31;;;;;;;4.10;3.38;;;;;;;27.49;34.80;98502.06;4134299;28;20232;-49
2023/06/17 09:07:33;;;;;;;3.22;3.03;;;;;;;27.51;33.78;98505.31;4148856;28;20204;-50
2023/06/17 09:09:35;;;;;;;3.95;3.45;;;;;;;27.85;34.60;98496.19;4149202;28;20687;-49
2023/06/17 09:11:37;;;;;;;3.28;2.97;;;;;;;27.96;34.13;98502.09;4131593;28;20205;-48
2023/06/17 09:13:39;;;;;;;3.63;3.15;;;;;;;28.21;34.37;98498.72;4135984;28;20213;-49
2023/06/17 09:15:41;;;;;;;3.53;3.22;;;;;;;28.77;33.45;98493.59;4133005;28;20260;-49
2023/06/17 09:17:47;;;;;;;3.42;3.10;;;;;;;28.21;32.77;98487.47;4119924;28;20606;-50
2023/06/17 09:19:49;;;;;;;2.97;2.78;;;;;;;28.83;32.74;98492.94;4150183;28;20291;-50
2023/06/17 09:21:51;;;;;;;5.35;3.40;;;;;;;28.03;33.26;98491.84;4141072;28;20235;-50
2023/06/17 09:24:00;;;;;;;4.50;3.03;;;;;;;28.54;34.68;98487.06;4144730;28;20208;-50
2023/06/17 09:26:03;;;;;;;2.78;2.58;;;;;;;28.60;32.71;98489.19;4139024;28;20662;-51
2023/06/17 09:28:05;;;;;;;4.20;3.63;;;;;;;28.87;32.78;98487.38;4133036;28;20204;-51
2023/06/17 09:30:20;;;;;;;3.30;3.00;;;;;;;28.83;32.00;98487.31;4139180;28;20197;-51
2023/06/17 09:32:23;;;;;;;8.05;4.43;;;;;;;28.57;32.09;98478.69;4122230;28;20323;-51
2023/06/17 09:34:26;;;;;;;5.45;3.42;;;;;;;27.94;32.85;98488.41;4164247;28;20235;-49
2023/06/17 09:36:28;;;;;;;3.53;3.08;;;;;;;28.26;31.79;98478.72;4132705;28;20455;-50
2023/06/17 09:38:33;;;;;;;3.25;2.95;;;;;;;27.49;33.03;98476.75;4149613;28;20227;-53